createdAt,value
2022-12-23T00:01:36.941Z,82.70
2022-12-23T00:05:44.708Z,82.74
2022-12-23T00:09:52.549Z,82.94
2022-12-23T00:14:21.531Z,82.98
2022-12-23T00:18:29.804Z,83.07
2022-12-23T00:22:54.948Z,83.09
2022-12-23T00:27:06.622Z,83.25
2022-12-23T00:31:14.849Z,83.32
2022-12-23T00:35:22.509Z,83.43
2022-12-23T00:39:50.771Z,83.60
2022-12-23T00:44:02.789Z,83.60
2022-12-23T00:48:28.390Z,83.62
2022-12-23T00:52:36.566Z,83.61
2022-12-23T00:56:44.089Z,83.66
2022-12-23T01:01:09.603Z,83.45
2022-12-23T01:05:35.575Z,83.49
2022-12-23T01:09:46.384Z,83.36
2022-12-23T01:13:54.826Z,83.11
2022-12-23T01:18:02.690Z,82.92
2022-12-23T01:22:10.326Z,82.70
2022-12-23T01:26:19.932Z,82.27
2022-12-23T01:30:28.198Z,82.18
2022-12-23T01:34:37.502Z,82.00
2022-12-23T01:38:45.556Z,81.94
2022-12-23T01:42:53.916Z,81.69
2022-12-23T01:47:01.850Z,81.88
2022-12-23T01:51:12.653Z,81.71
2022-12-23T01:55:24.514Z,81.63
2022-12-23T01:59:50.508Z,81.22
2022-12-23T02:04:01.244Z,81.50
2022-12-23T02:08:27.926Z,81.52
2022-12-23T02:12:53.855Z,81.93
2022-12-23T02:17:09.269Z,81.78
2022-12-23T02:21:33.561Z,82.06
2022-12-23T02:26:02.262Z,82.25
2022-12-23T02:30:30.242Z,82.52
2022-12-23T02:34:42.300Z,82.34
2022-12-23T02:38:55.862Z,82.31
2022-12-23T02:43:08.693Z,82.44
2022-12-23T02:47:21.607Z,82.45
2022-12-23T02:51:32.623Z,82.35
2022-12-23T02:55:43.581Z,82.29
2022-12-23T02:59:53.329Z,82.30
2022-12-23T03:04:01.229Z,82.44
2022-12-23T03:08:19.228Z,82.80
2022-12-23T03:12:37.221Z,82.80
2022-12-23T03:16:53.244Z,83.04
2022-12-23T03:21:08.006Z,83.26
2022-12-23T03:25:22.086Z,83.35
2022-12-23T03:29:36.473Z,83.33
2022-12-23T03:33:46.774Z,83.52
2022-12-23T03:37:56.565Z,83.60
2022-12-23T03:42:09.619Z,83.67
2022-12-23T03:46:21.637Z,84.02
2022-12-23T03:50:30.922Z,84.53
2022-12-23T03:54:42.369Z,85.01
2022-12-23T03:58:57.395Z,85.10
2022-12-23T04:03:12.429Z,85.22
2022-12-23T04:07:23.161Z,85.41
2022-12-23T04:11:31.726Z,85.63
2022-12-23T04:15:42.469Z,85.62
2022-12-23T04:19:50.961Z,85.75
2022-12-23T04:23:58.664Z,85.49
2022-12-23T04:28:06.655Z,84.99
2022-12-23T04:32:14.373Z,84.89
2022-12-23T04:36:22.018Z,84.84
2022-12-23T04:40:29.568Z,85.05
2022-12-23T04:44:37.249Z,85.26
2022-12-23T04:48:44.854Z,85.47
2022-12-23T04:52:52.461Z,85.78
2022-12-23T04:57:00.276Z,85.86
2022-12-23T05:01:10.578Z,86.07
2022-12-23T05:05:19.052Z,85.93
2022-12-23T05:09:26.653Z,85.43
2022-12-23T05:13:34.603Z,85.32
2022-12-23T05:17:42.068Z,85.30
2022-12-23T05:21:49.917Z,85.29
2022-12-23T05:25:57.632Z,85.49
2022-12-23T05:30:06.973Z,85.43
2022-12-23T05:34:14.705Z,85.57
2022-12-23T05:38:23.181Z,85.60
2022-12-23T05:42:30.333Z,85.51
2022-12-23T05:46:39.245Z,85.24
2022-12-23T05:50:47.165Z,85.13
2022-12-23T05:54:54.974Z,85.32
2022-12-23T05:59:03.188Z,85.22
2022-12-23T06:03:12.113Z,85.27
2022-12-23T06:07:19.790Z,85.27
2022-12-23T06:11:27.280Z,85.59
2022-12-23T06:15:35.312Z,85.93
2022-12-23T06:19:45.394Z,86.43
2022-12-23T06:23:53.059Z,86.65
2022-12-23T06:28:00.796Z,86.75
2022-12-23T06:32:09.264Z,86.62
2022-12-23T06:36:17.305Z,86.83
2022-12-23T06:40:24.934Z,86.69
2022-12-23T06:44:32.626Z,86.70
2022-12-23T06:48:40.189Z,86.72
2022-12-23T06:52:49.252Z,86.83
2022-12-23T06:56:56.605Z,86.78
2022-12-23T07:01:07.354Z,86.62
2022-12-23T07:05:39.454Z,86.70
2022-12-23T07:09:47.580Z,86.64
2022-12-23T07:13:55.744Z,86.31
2022-12-23T07:18:04.652Z,86.59
2022-12-23T07:22:12.886Z,86.21
2022-12-23T07:26:20.962Z,86.38
2022-12-23T07:30:29.360Z,86.51
2022-12-23T07:34:37.824Z,86.41
2022-12-23T07:38:46.034Z,86.42
2022-12-23T07:42:58.207Z,86.10
2022-12-23T07:47:06.458Z,86.09
2022-12-23T07:51:14.589Z,86.04
2022-12-23T07:55:22.284Z,86.05
2022-12-23T07:59:31.377Z,85.88
2022-12-23T08:03:40.215Z,85.62
2022-12-23T08:07:50.450Z,85.40
2022-12-23T08:11:57.823Z,85.28
2022-12-23T08:16:07.049Z,85.22
2022-12-23T08:20:15.526Z,85.27
2022-12-23T08:24:22.893Z,85.05
2022-12-23T08:28:31.642Z,85.11
2022-12-23T08:32:42.127Z,84.96
2022-12-23T08:36:49.806Z,84.91
2022-12-23T08:40:58.096Z,84.94
2022-12-23T08:45:30.631Z,84.54
2022-12-23T08:49:39.420Z,84.49
2022-12-23T08:53:47.451Z,84.38
2022-12-23T08:57:55.500Z,84.37
2022-12-23T09:02:03.543Z,84.45
2022-12-23T09:06:14.641Z,84.29
2022-12-23T09:10:48.123Z,84.35
2022-12-23T09:14:56.823Z,84.33
2022-12-23T09:19:04.580Z,83.69
2022-12-23T09:23:12.504Z,83.94
2022-12-23T09:27:21.348Z,83.79
2022-12-23T09:31:36.238Z,83.77
2022-12-23T09:35:45.187Z,83.47
2022-12-23T09:39:52.984Z,83.14
2022-12-23T09:44:13.554Z,82.89
2022-12-23T09:48:27.164Z,83.09
2022-12-23T09:52:44.405Z,83.25
2022-12-23T09:56:56.211Z,83.34
2022-12-23T10:01:15.680Z,83.68
2022-12-23T10:05:31.641Z,83.42
2022-12-23T10:09:41.051Z,83.49
2022-12-23T10:13:52.460Z,83.70
2022-12-23T10:18:04.320Z,83.46
2022-12-23T10:22:18.294Z,83.88
2022-12-23T10:26:30.700Z,83.83
2022-12-23T10:31:05.785Z,83.73
2022-12-23T10:35:17.563Z,83.48
2022-12-23T10:39:29.958Z,83.46
2022-12-23T10:43:47.019Z,83.09
2022-12-23T10:48:13.681Z,82.99
2022-12-23T10:52:24.089Z,82.72
2022-12-23T10:56:39.644Z,82.61
2022-12-23T11:00:57.719Z,82.98
2022-12-23T11:05:09.836Z,82.76
2022-12-23T11:09:21.207Z,81.77
2022-12-23T11:13:38.160Z,82.03
2022-12-23T11:18:01.622Z,82.19
2022-12-23T11:22:10.854Z,81.65
2022-12-23T11:26:23.184Z,81.85
2022-12-23T11:30:36.637Z,81.95
2022-12-23T11:34:47.952Z,81.70
2022-12-23T11:39:00.658Z,81.64
2022-12-23T11:43:13.358Z,82.14
2022-12-23T11:47:30.863Z,82.18
2022-12-23T11:51:39.201Z,82.04
2022-12-23T11:55:57.911Z,81.62
2022-12-23T12:00:33.552Z,81.89
2022-12-23T12:04:41.973Z,81.35
2022-12-23T12:08:51.942Z,81.06
2022-12-23T12:13:04.787Z,81.19
2022-12-23T12:17:17.949Z,80.65
2022-12-23T12:21:30.720Z,80.75
2022-12-23T12:25:43.297Z,80.36
2022-12-23T12:29:56.016Z,80.25
2022-12-23T12:34:12.107Z,80.25
2022-12-23T12:38:26.567Z,80.17
2022-12-23T12:42:39.727Z,80.28
2022-12-23T12:46:51.604Z,80.26
2022-12-23T12:51:05.959Z,80.14
2022-12-23T12:55:21.475Z,79.93
2022-12-23T12:59:31.196Z,79.99
2022-12-23T13:03:58.517Z,80.41
2022-12-23T13:08:19.191Z,79.78
2022-12-23T13:12:36.863Z,80.04
2022-12-23T13:16:50.529Z,79.91
2022-12-23T13:21:03.510Z,79.74
2022-12-23T13:25:35.398Z,79.88
2022-12-23T13:29:58.766Z,79.47
2022-12-23T13:34:14.971Z,79.78
2022-12-23T13:38:36.070Z,79.61
2022-12-23T13:42:48.014Z,79.56
2022-12-23T13:47:04.303Z,79.71
2022-12-23T13:51:16.948Z,79.93
2022-12-23T13:55:38.912Z,79.90
2022-12-23T14:00:04.852Z,80.38
2022-12-23T14:04:47.660Z,80.14
2022-12-23T14:08:57.057Z,80.70
2022-12-23T14:13:07.336Z,80.72
2022-12-23T14:17:19.937Z,80.55
2022-12-23T14:21:37.475Z,81.07
2022-12-23T14:26:18.970Z,81.12
2022-12-23T14:30:36.231Z,81.22
2022-12-23T14:35:07.501Z,81.32
2022-12-23T14:39:33.940Z,81.07
2022-12-23T14:44:02.970Z,81.07
2022-12-23T14:48:44.635Z,80.98
2022-12-23T14:53:07.035Z,80.66
2022-12-23T14:57:21.752Z,80.84
2022-12-23T15:01:35.074Z,80.88
2022-12-23T15:05:44.866Z,80.97
2022-12-23T15:10:00.664Z,81.58
2022-12-23T15:14:12.251Z,81.55
2022-12-23T15:18:20.045Z,82.17
2022-12-23T15:22:34.092Z,82.41
2022-12-23T15:26:57.585Z,82.12
2022-12-23T15:31:29.352Z,82.34
2022-12-23T15:35:39.950Z,82.29
2022-12-23T15:39:52.701Z,82.17
2022-12-23T15:44:06.083Z,82.15
2022-12-23T15:48:29.695Z,82.36
2022-12-23T15:52:37.448Z,82.58
2022-12-23T15:56:50.304Z,82.21
2022-12-23T16:01:00.190Z,82.46
2022-12-23T16:05:10.580Z,82.21
2022-12-23T16:09:32.618Z,81.78
2022-12-23T16:13:47.363Z,82.22
2022-12-23T16:18:14.692Z,82.60
2022-12-23T16:22:28.613Z,82.59
2022-12-23T16:26:45.025Z,82.67
2022-12-23T16:30:57.069Z,82.95
2022-12-23T16:35:13.703Z,83.11
2022-12-23T16:39:27.264Z,82.94
2022-12-23T16:43:35.009Z,82.87
2022-12-23T16:47:45.298Z,82.87
2022-12-23T16:51:54.073Z,82.69
2022-12-23T16:56:01.972Z,82.44
2022-12-23T17:00:12.539Z,82.01
2022-12-23T17:04:21.486Z,82.06
2022-12-23T17:08:29.489Z,81.63
2022-12-23T17:12:38.012Z,81.69
2022-12-23T17:16:46.175Z,81.61
2022-12-23T17:20:54.476Z,81.64
2022-12-23T17:25:02.083Z,81.51
2022-12-23T17:29:13.350Z,81.54
2022-12-23T17:33:21.618Z,81.32
2022-12-23T17:37:32.028Z,81.79
2022-12-23T17:41:41.882Z,81.79
2022-12-23T17:45:51.091Z,81.58
2022-12-23T17:49:59.107Z,81.73
2022-12-23T17:54:08.806Z,81.82
2022-12-23T17:58:16.869Z,81.67
2022-12-23T18:02:30.787Z,81.67
2022-12-23T18:06:39.107Z,82.20
2022-12-23T18:10:47.229Z,81.71
2022-12-23T18:14:55.984Z,82.00
2022-12-23T18:19:04.793Z,82.22
2022-12-23T18:23:16.168Z,82.56
2022-12-23T18:27:27.132Z,82.52
2022-12-23T18:31:37.309Z,82.38
2022-12-23T18:35:48.535Z,82.82
2022-12-23T18:39:56.346Z,83.10
2022-12-23T18:44:04.572Z,83.09
2022-12-23T18:48:12.322Z,82.94
2022-12-23T18:52:23.194Z,83.11
2022-12-23T18:56:30.935Z,83.05
2022-12-23T19:09:53.147Z,83.43
2022-12-23T19:14:00.902Z,83.20
2022-12-23T19:18:10.079Z,83.33
2022-12-23T19:22:20.885Z,83.87
2022-12-23T19:26:29.198Z,83.57
2022-12-23T19:30:37.251Z,83.72
2022-12-23T19:34:45.463Z,83.63
2022-12-23T19:38:53.637Z,83.36
2022-12-23T19:43:01.675Z,83.42
2022-12-23T19:47:09.438Z,83.37
2022-12-23T19:51:18.827Z,83.56
2022-12-23T19:55:32.007Z,83.69
2022-12-23T19:59:46.709Z,83.94
2022-12-23T20:03:56.533Z,83.84
2022-12-23T20:08:06.175Z,84.10
2022-12-23T20:12:14.279Z,84.06
2022-12-23T20:16:24.520Z,84.19
2022-12-23T20:20:38.469Z,84.11
2022-12-23T20:24:47.199Z,84.03
2022-12-23T20:28:55.114Z,84.02
2022-12-23T20:33:04.009Z,84.07
2022-12-23T20:37:13.321Z,83.93
2022-12-23T20:41:23.439Z,84.09
2022-12-23T20:45:30.829Z,84.05
2022-12-23T20:49:38.774Z,84.17
2022-12-23T20:53:46.797Z,84.49
2022-12-23T20:57:54.960Z,84.58
2022-12-23T21:02:02.918Z,84.77
2022-12-23T21:06:13.197Z,85.17
2022-12-23T21:10:21.801Z,85.21
2022-12-23T21:14:29.688Z,85.53
2022-12-23T21:18:40.714Z,85.48
2022-12-23T21:22:52.365Z,85.54
2022-12-23T21:27:00.218Z,85.75
2022-12-23T21:31:09.045Z,85.95
2022-12-23T21:35:17.125Z,86.08
2022-12-23T21:39:25.929Z,85.97
2022-12-23T21:43:33.735Z,85.82
2022-12-23T21:47:43.592Z,85.89
2022-12-23T21:51:51.180Z,86.30
2022-12-23T21:56:03.798Z,86.48
2022-12-23T22:00:13.338Z,86.41
2022-12-23T22:04:22.831Z,86.66
2022-12-23T22:08:30.447Z,86.44
2022-12-23T22:12:38.678Z,86.37
2022-12-23T22:16:46.377Z,86.74
2022-12-23T22:20:54.499Z,86.74
2022-12-23T22:25:02.530Z,87.06
2022-12-23T22:29:14.653Z,86.74
2022-12-23T22:33:22.709Z,87.10
2022-12-23T22:37:31.143Z,87.07
2022-12-23T22:41:39.764Z,86.93
2022-12-23T22:45:48.662Z,86.65
2022-12-23T22:49:56.570Z,86.74
2022-12-23T22:54:04.869Z,86.69
2022-12-23T22:58:12.658Z,86.81
2022-12-23T23:02:20.948Z,86.77
2022-12-23T23:06:29.996Z,86.61
2022-12-23T23:10:37.968Z,86.55
2022-12-23T23:14:56.518Z,86.57
2022-12-23T23:19:04.584Z,86.36
2022-12-23T23:23:13.578Z,86.62
2022-12-23T23:27:22.490Z,86.67
2022-12-23T23:31:46.181Z,86.49
2022-12-23T23:35:58.652Z,86.78
2022-12-23T23:40:08.163Z,86.71
2022-12-23T23:44:16.841Z,86.41
2022-12-23T23:48:25.649Z,86.53
2022-12-23T23:52:34.024Z,86.53
2022-12-23T23:56:41.997Z,86.36
